Time;durP1;ratioP1;P1;durP2;ratioP2;P2;SDS_P1;SDS_P2;PMS_P1;PMS_P2;Temp;Humidity;BMP_temperature;BMP_pressure;BME280_temperature;BME280_humidity;BME280_pressure;Samples;Min_cycle;Max_cycle;Signal;HPM_P1;HPM_P2
2023/05/30 00:00:19;;;;;;;;;;;14.00;99.90;;;;;;4951411;29;19926;-63
2023/05/30 00:02:51;;;;;;;;;;;14.00;99.90;;;;;;4937716;29;20281;-63
2023/05/30 00:05:23;;;;;;;;;;;13.90;99.90;;;;;;4951822;29;19942;-63
2023/05/30 00:07:56;;;;;;;;;;;13.90;99.90;;;;;;4968349;28;19934;-63
2023/05/30 00:10:27;;;;;;;;;;;13.90;99.90;;;;;;4937411;29;19934;-63
2023/05/30 00:12:59;;;;;;;;;;;13.80;99.90;;;;;;4951664;29;19931;-63
2023/05/30 00:15:31;;;;;;;;;;;13.80;99.90;;;;;;4951594;29;19938;-63
2023/05/30 00:18:03;;;;;;;;;;;13.80;99.90;;;;;;4935844;29;20029;-64
2023/05/30 00:20:35;;;;;;;;;;;13.80;99.90;;;;;;4937104;29;20302;-64
2023/05/30 00:23:07;;;;;;;;;;;13.80;99.90;;;;;;4937235;29;19931;-63
2023/05/30 00:25:38;;;;;;;;;;;13.70;99.90;;;;;;4968191;28;19926;-63
2023/05/30 00:28:10;;;;;;;;;;;13.70;99.90;;;;;;4937069;29;20394;-63
2023/05/30 00:30:41;;;;;;;;;;;13.70;99.90;;;;;;4951625;29;19927;-63
2023/05/30 00:33:14;;;;;;;;;;;13.70;99.90;;;;;;4966377;28;19938;-63
2023/05/30 00:35:40;;;;;;;;;;;13.70;99.90;;;;;;4964461;28;20042;-63
2023/05/30 00:38:12;;;;;;;;;;;13.70;99.90;;;;;;4949532;29;20462;-65
2023/05/30 00:40:44;;;;;;;;;;;13.60;99.90;;;;;;4949670;29;19934;-63
2023/05/30 00:43:18;;;;;;;;;;;13.60;99.90;;;;;;4949044;29;20018;-63
2023/05/30 00:45:52;;;;;;;;;;;13.60;99.90;;;;;;4959181;28;19970;-63
2023/05/30 00:48:24;;;;;;;;;;;13.50;99.90;;;;;;4940685;29;19941;-64
2023/05/30 00:50:53;;;;;;;;;;;13.50;99.90;;;;;;4967304;28;20021;-64
2023/05/30 00:53:25;;;;;;;;;;;13.40;99.90;;;;;;4966663;28;19973;-64
2023/05/30 00:55:52;;;;;;;;;;;13.40;99.90;;;;;;4967595;28;20006;-64
2023/05/30 00:58:21;;;;;;;;;;;13.30;99.90;;;;;;4967210;28;20026;-63
2023/05/30 01:00:53;;;;;;;;;;;13.30;99.90;;;;;;4940861;29;19927;-64
2023/05/30 01:03:27;;;;;;;;;;;13.20;99.90;;;;;;4960945;28;20029;-63
2023/05/30 01:05:54;;;;;;;;;;;13.20;99.90;;;;;;4966775;28;20017;-65
2023/05/30 01:08:26;;;;;;;;;;;13.20;99.90;;;;;;4964864;28;19966;-65
2023/05/30 01:11:15;;;;;;;;;;;13.10;99.90;;;;;;4949561;29;19942;-66
2023/05/30 01:14:06;;;;;;;;;;;13.10;99.90;;;;;;4966451;28;20366;-66
2023/05/30 01:16:40;;;;;;;;;;;13.00;99.90;;;;;;4928178;29;19937;-65
2023/05/30 01:19:31;;;;;;;;;;;13.00;99.90;;;;;;4964030;28;19931;-65
2023/05/30 01:22:16;;;;;;;;;;;13.00;99.90;;;;;;4935459;29;20410;-65
2023/05/30 01:24:57;;;;;;;;;;;13.00;99.90;;;;;;4964270;28;20022;-65
2023/05/30 01:27:48;;;;;;;;;;;12.90;99.90;;;;;;4929362;29;20217;-66
2023/05/30 01:30:20;;;;;;;;;;;12.90;99.90;;;;;;4965993;28;19927;-65
2023/05/30 01:32:52;;;;;;;;;;;12.90;99.90;;;;;;4966368;28;20081;-66
2023/05/30 01:35:24;;;;;;;;;;;12.90;99.90;;;;;;4949144;29;19930;-66
2023/05/30 01:37:58;;;;;;;;;;;12.80;99.90;;;;;;4966153;28;19927;-65
2023/05/30 01:40:30;;;;;;;;;;;12.80;99.90;;;;;;4964326;28;19931;-67
2023/05/30 01:43:01;;;;;;;;;;;12.90;99.90;;;;;;4935427;29;20407;-65
2023/05/30 01:45:39;;;;;;;;;;;12.80;99.90;;;;;;4966379;28;19934;-65
2023/05/30 01:48:29;;;;;;;;;;;12.80;99.90;;;;;;4965970;28;20017;-66
2023/05/30 01:51:02;;;;;;;;;;;12.80;99.90;;;;;;4941199;29;19989;-65
2023/05/30 01:53:31;;;;;;;;;;;12.80;99.90;;;;;;4965864;28;19927;-66
2023/05/30 01:56:04;;;;;;;;;;;12.80;99.90;;;;;;4932702;29;20414;-65
2023/05/30 01:58:36;;;;;;;;;;;12.80;99.90;;;;;;4963480;28;20366;-66
2023/05/30 02:01:08;;;;;;;;;;;12.70;99.90;;;;;;4964741;28;19931;-65
2023/05/30 02:03:40;;;;;;;;;;;12.80;99.90;;;;;;4935030;29;19926;-65
2023/05/30 02:06:12;;;;;;;;;;;12.80;99.90;;;;;;4947067;28;19938;-65
2023/05/30 02:08:47;;;;;;;;;;;12.80;99.90;;;;;;4963660;28;19938;-65
2023/05/30 02:11:19;;;;;;;;;;;12.80;99.90;;;;;;4934802;29;19933;-65
2023/05/30 02:13:52;;;;;;;;;;;12.80;99.90;;;;;;4934698;29;19934;-65
2023/05/30 02:16:24;;;;;;;;;;;12.80;99.90;;;;;;4965601;28;19938;-65
2023/05/30 02:18:56;;;;;;;;;;;12.70;99.90;;;;;;4933857;29;19926;-65
2023/05/30 02:21:27;;;;;;;;;;;12.70;99.90;;;;;;4934585;29;20322;-65
2023/05/30 02:23:59;;;;;;;;;;;12.70;99.90;;;;;;4940887;29;19926;-65
2023/05/30 02:26:33;;;;;;;;;;;12.60;99.90;;;;;;4948909;29;19935;-66
2023/05/30 02:29:05;;;;;;;;;;;12.60;99.90;;;;;;4948385;29;20338;-66
2023/05/30 02:31:37;;;;;;;;;;;12.60;99.90;;;;;;4941181;29;19927;-65
2023/05/30 02:34:08;;;;;;;;;;;12.50;99.90;;;;;;4962796;28;19931;-65
2023/05/30 02:36:40;;;;;;;;;;;12.50;99.90;;;;;;4924089;29;19933;-66
2023/05/30 02:39:12;;;;;;;;;;;12.50;99.90;;;;;;4936580;29;19931;-66
2023/05/30 02:41:44;;;;;;;;;;;12.50;99.90;;;;;;4964961;28;19927;-65
2023/05/30 02:44:17;;;;;;;;;;;12.50;99.90;;;;;;4937824;29;19982;-65
2023/05/30 02:46:50;;;;;;;;;;;12.40;99.90;;;;;;4925648;29;19927;-65
2023/05/30 02:49:22;;;;;;;;;;;12.50;99.90;;;;;;4948737;29;19953;-65
2023/05/30 02:51:54;;;;;;;;;;;12.50;99.90;;;;;;4932588;29;19926;-65
2023/05/30 02:54:31;;;;;;;;;;;12.40;99.90;;;;;;4929157;29;20017;-65
2023/05/30 02:57:24;;;;;;;;;;;12.40;99.90;;;;;;4933729;28;19931;-65
2023/05/30 03:00:20;;;;;;;;;;;12.40;99.90;;;;;;4930484;29;19931;-65
2023/05/30 03:03:08;;;;;;;;;;;12.40;99.90;;;;;;4962225;28;20314;-65
2023/05/30 03:05:46;;;;;;;;;;;12.30;99.90;;;;;;4948091;29;19931;-65
2023/05/30 03:08:23;;;;;;;;;;;12.40;99.90;;;;;;4964261;28;19927;-66
2023/05/30 03:10:57;;;;;;;;;;;12.40;99.90;;;;;;4952578;28;19942;-65
2023/05/30 03:13:29;;;;;;;;;;;12.30;99.90;;;;;;4947805;29;19982;-65
2023/05/30 03:16:00;;;;;;;;;;;12.30;99.90;;;;;;4934086;29;19990;-65
2023/05/30 03:18:27;;;;;;;;;;;12.30;99.90;;;;;;4964393;28;19937;-65
2023/05/30 03:20:59;;;;;;;;;;;12.30;99.90;;;;;;4964974;28;20285;-65
2023/05/30 03:23:31;;;;;;;;;;;12.30;99.90;;;;;;4948054;29;20352;-65
2023/05/30 03:26:03;;;;;;;;;;;12.30;99.90;;;;;;4964929;28;20060;-66
2023/05/30 03:28:30;;;;;;;;;;;12.30;99.90;;;;;;4964396;28;19927;-65
2023/05/30 03:31:29;;;;;;;;;;;12.30;99.90;;;;;;4932873;28;19935;-65
2023/05/30 03:34:01;;;;;;;;;;;12.20;99.90;;;;;;4964965;28;19929;-65
2023/05/30 03:36:33;;;;;;;;;;;12.20;99.90;;;;;;4939060;29;20462;-65
2023/05/30 03:39:05;;;;;;;;;;;12.20;99.90;;;;;;4964757;28;20314;-66
2023/05/30 03:41:31;;;;;;;;;;;12.20;99.90;;;;;;4964636;28;20026;-65
2023/05/30 03:44:04;;;;;;;;;;;12.20;99.90;;;;;;4946454;29;20359;-66
2023/05/30 03:46:35;;;;;;;;;;;12.20;99.90;;;;;;4948567;29;19934;-66
2023/05/30 03:49:07;;;;;;;;;;;12.20;99.90;;;;;;4960229;28;19933;-65
2023/05/30 03:51:39;;;;;;;;;;;12.10;99.90;;;;;;4973905;23;20332;-67
2023/05/30 03:54:11;;;;;;;;;;;12.20;99.90;;;;;;4950985;28;19937;-66
2023/05/30 03:56:45;;;;;;;;;;;12.20;99.90;;;;;;4956614;28;19926;-66
2023/05/30 03:59:17;;;;;;;;;;;12.20;99.90;;;;;;4956993;28;19927;-67
2023/05/30 04:01:49;;;;;;;;;;;12.20;99.90;;;;;;4958136;28;19933;-66
2023/05/30 04:04:21;;;;;;;;;;;12.20;99.90;;;;;;4945251;28;20395;-67
2023/05/30 04:06:53;;;;;;;;;;;12.20;99.90;;;;;;4929602;29;19930;-66
2023/05/30 04:09:21;;;;;;;;;;;12.20;99.90;;;;;;4944570;28;19931;-67
2023/05/30 04:11:48;;;;;;;;;;;12.20;99.90;;;;;;4941990;28;19937;-67
2023/05/30 04:14:19;;;;;;;;;;;12.20;99.90;;;;;;4939392;28;19938;-67
2023/05/30 04:16:51;;;;;;;;;;;12.30;99.90;;;;;;4938262;28;20379;-67
2023/05/30 04:19:23;;;;;;;;;;;12.30;99.90;;;;;;4939222;28;20016;-67
2023/05/30 04:21:55;;;;;;;;;;;12.30;99.90;;;;;;4958332;28;19927;-68
2023/05/30 04:24:22;;;;;;;;;;;12.30;99.90;;;;;;4946749;28;20421;-66
2023/05/30 04:26:53;;;;;;;;;;;12.40;99.90;;;;;;4951325;28;20458;-67
2023/05/30 04:29:25;;;;;;;;;;;12.40;99.90;;;;;;4953479;28;19930;-67
2023/05/30 04:31:53;;;;;;;;;;;12.50;99.90;;;;;;4960746;28;20310;-66
2023/05/30 04:34:25;;;;;;;;;;;12.50;99.90;;;;;;4954254;28;20398;-66
2023/05/30 04:36:57;;;;;;;;;;;12.50;99.90;;;;;;4940493;28;19926;-67
2023/05/30 04:39:29;;;;;;;;;;;12.60;99.90;;;;;;4955179;28;20035;-67
2023/05/30 04:42:04;;;;;;;;;;;12.60;99.90;;;;;;4962538;28;20672;-67
2023/05/30 04:44:39;;;;;;;;;;;12.60;99.90;;;;;;4957769;28;19926;-67
2023/05/30 04:47:11;;;;;;;;;;;12.70;99.90;;;;;;4955346;28;19994;-66
2023/05/30 04:49:44;;;;;;;;;;;12.80;99.90;;;;;;4962560;28;19926;-67
2023/05/30 04:52:11;;;;;;;;;;;12.80;99.90;;;;;;4949155;28;19937;-66
2023/05/30 04:54:43;;;;;;;;;;;12.80;99.90;;;;;;4955591;28;19936;-68
2023/05/30 04:57:15;;;;;;;;;;;12.80;99.90;;;;;;4948807;28;19965;-66
2023/05/30 04:59:47;;;;;;;;;;;12.80;99.90;;;;;;4964099;28;19937;-68
2023/05/30 05:02:19;;;;;;;;;;;12.90;99.90;;;;;;4927795;28;20383;-68
2023/05/30 05:04:51;;;;;;;;;;;12.90;99.90;;;;;;4966135;28;20395;-68
2023/05/30 05:07:23;;;;;;;;;;;13.00;99.90;;;;;;4964146;28;20005;-68
2023/05/30 05:09:50;;;;;;;;;;;13.00;99.90;;;;;;4967948;28;20028;-68
2023/05/30 05:12:17;;;;;;;;;;;13.10;99.90;;;;;;4967761;28;20013;-68
2023/05/30 05:14:49;;;;;;;;;;;13.20;99.90;;;;;;4964776;28;19930;-68
2023/05/30 05:17:20;;;;;;;;;;;13.20;99.90;;;;;;4964058;28;20035;-68
2023/05/30 05:19:53;;;;;;;;;;;13.30;99.90;;;;;;4964584;28;19949;-69
2023/05/30 05:22:25;;;;;;;;;;;13.40;99.90;;;;;;4960071;28;20402;-68
2023/05/30 05:24:52;;;;;;;;;;;13.50;99.90;;;;;;4951070;28;20017;-69
2023/05/30 05:27:18;;;;;;;;;;;13.60;99.90;;;;;;4952407;28;19933;-68
2023/05/30 05:29:45;;;;;;;;;;;13.60;99.90;;;;;;4948836;28;20017;-69
2023/05/30 05:32:12;;;;;;;;;;;13.70;99.90;;;;;;4949785;28;20017;-67
2023/05/30 05:34:44;;;;;;;;;;;13.70;99.90;;;;;;4958308;28;20283;-67
2023/05/30 05:37:16;;;;;;;;;;;13.80;99.90;;;;;;4949494;28;19968;-68
2023/05/30 05:39:43;;;;;;;;;;;13.90;99.90;;;;;;4962774;28;19941;-67
2023/05/30 05:42:15;;;;;;;;;;;14.00;99.90;;;;;;4962174;28;19926;-67
2023/05/30 05:44:41;;;;;;;;;;;14.10;99.90;;;;;;4962393;28;20029;-68
2023/05/30 05:47:13;;;;;;;;;;;14.20;99.90;;;;;;4963273;28;19936;-68
2023/05/30 05:49:45;;;;;;;;;;;14.20;99.90;;;;;;4969518;28;19926;-67
2023/05/30 05:52:17;;;;;;;;;;;14.20;99.90;;;;;;4957063;28;19934;-68
2023/05/30 05:54:49;;;;;;;;;;;14.30;99.90;;;;;;4949757;28;20430;-68
2023/05/30 05:57:22;;;;;;;;;;;14.30;99.90;;;;;;4959567;28;19930;-69
2023/05/30 05:59:53;;;;;;;;;;;14.50;99.90;;;;;;4940492;28;19934;-67
2023/05/30 06:02:25;;;;;;;;;;;14.50;99.90;;;;;;4944222;28;19930;-68
2023/05/30 06:04:57;;;;;;;;;;;14.60;99.90;;;;;;4961898;28;20012;-68
2023/05/30 06:07:24;;;;;;;;;;;14.70;99.90;;;;;;4962763;28;19930;-68
2023/05/30 06:09:50;;;;;;;;;;;14.80;99.90;;;;;;4966055;28;19925;-68
2023/05/30 06:12:22;;;;;;;;;;;14.80;99.90;;;;;;4964936;28;20696;-67
2023/05/30 06:14:54;;;;;;;;;;;14.80;99.90;;;;;;4961502;28;19934;-67
2023/05/30 06:17:27;;;;;;;;;;;14.90;99.90;;;;;;4958669;28;19930;-67
2023/05/30 06:19:59;;;;;;;;;;;14.90;99.90;;;;;;4948791;28;20031;-67
2023/05/30 06:22:31;;;;;;;;;;;15.00;99.90;;;;;;4954405;28;19935;-67
2023/05/30 06:24:58;;;;;;;;;;;15.00;99.90;;;;;;4958094;28;19981;-68
2023/05/30 06:27:25;;;;;;;;;;;15.10;99.90;;;;;;4947020;28;20318;-68
2023/05/30 06:29:57;;;;;;;;;;;15.20;99.90;;;;;;4932012;28;19981;-68
2023/05/30 06:32:29;;;;;;;;;;;15.20;99.90;;;;;;4962755;28;19930;-67
2023/05/30 06:34:55;;;;;;;;;;;15.40;99.90;;;;;;4964593;28;19926;-66
2023/05/30 06:37:22;;;;;;;;;;;15.40;99.90;;;;;;4946531;28;19965;-67
2023/05/30 06:39:54;;;;;;;;;;;15.60;99.90;;;;;;4958622;28;19926;-67
2023/05/30 06:42:26;;;;;;;;;;;15.60;99.90;;;;;;4948897;28;20417;-66
2023/05/30 06:44:58;;;;;;;;;;;15.70;99.90;;;;;;4954689;28;19927;-67
2023/05/30 06:47:29;;;;;;;;;;;15.80;99.90;;;;;;4943180;28;20174;-67
2023/05/30 06:50:01;;;;;;;;;;;15.90;99.90;;;;;;4958860;28;19926;-67
2023/05/30 06:52:33;;;;;;;;;;;16.00;99.90;;;;;;4960167;28;19933;-66
2023/05/30 06:55:06;;;;;;;;;;;16.10;99.90;;;;;;4944103;28;19930;-66
2023/05/30 06:57:38;;;;;;;;;;;16.20;99.90;;;;;;4953629;28;19930;-67
2023/05/30 07:00:10;;;;;;;;;;;16.30;99.90;;;;;;4951010;28;19990;-67
2023/05/30 07:02:42;;;;;;;;;;;16.40;99.90;;;;;;4949310;28;19935;-67
2023/05/30 07:05:14;;;;;;;;;;;16.40;99.90;;;;;;4945017;28;20343;-66
2023/05/30 07:07:46;;;;;;;;;;;16.50;99.90;;;;;;4961225;28;19932;-67
2023/05/30 07:10:18;;;;;;;;;;;16.50;99.90;;;;;;4957772;28;19926;-68
2023/05/30 07:12:52;;;;;;;;;;;16.60;99.90;;;;;;4959981;28;20433;-68
2023/05/30 07:15:25;;;;;;;;;;;16.70;99.90;;;;;;4957736;28;19937;-68
2023/05/30 07:17:57;;;;;;;;;;;16.70;99.90;;;;;;4927349;29;20021;-68
2023/05/30 07:20:30;;;;;;;;;;;16.90;99.90;;;;;;4961040;28;19934;-67
2023/05/30 07:22:56;;;;;;;;;;;17.00;99.90;;;;;;4963441;28;19927;-67
2023/05/30 07:25:28;;;;;;;;;;;17.10;99.90;;;;;;4960006;28;19926;-67
2023/05/30 07:28:00;;;;;;;;;;;17.20;99.90;;;;;;4945746;28;19985;-68
2023/05/30 07:30:27;;;;;;;;;;;17.20;99.90;;;;;;4954154;28;19930;-67
2023/05/30 07:32:59;;;;;;;;;;;17.30;99.90;;;;;;4965742;28;20287;-68
2023/05/30 07:35:31;;;;;;;;;;;17.40;99.90;;;;;;4960373;28;20416;-68
2023/05/30 07:38:03;;;;;;;;;;;17.50;99.90;;;;;;4960168;28;19926;-68
2023/05/30 07:40:35;;;;;;;;;;;17.60;99.90;;;;;;4950636;28;19937;-66
2023/05/30 07:43:06;;;;;;;;;;;17.70;99.90;;;;;;4961818;28;19926;-68
2023/05/30 07:45:38;;;;;;;;;;;17.80;99.90;;;;;;4961291;28;20013;-68
2023/05/30 07:48:05;;;;;;;;;;;17.90;99.90;;;;;;4958877;28;19932;-67
2023/05/30 07:50:37;;;;;;;;;;;18.00;99.90;;;;;;4952258;28;20368;-67
2023/05/30 07:53:09;;;;;;;;;;;18.10;99.90;;;;;;4952206;28;19933;-67
2023/05/30 07:55:38;;;;;;;;;;;18.20;99.90;;;;;;4957446;28;20222;-67
2023/05/30 07:58:04;;;;;;;;;;;18.30;99.90;;;;;;4955942;28;19926;-68
2023/05/30 08:00:36;;;;;;;;;;;18.40;99.90;;;;;;4956401;28;19926;-68
2023/05/30 08:03:08;;;;;;;;;;;18.50;99.90;;;;;;4952134;28;20402;-68
2023/05/30 08:05:40;;;;;;;;;;;18.50;99.90;;;;;;4968458;28;19926;-68
2023/05/30 08:08:07;;;;;;;;;;;18.70;99.90;;;;;;4967461;28;19980;-67
2023/05/30 08:10:38;;;;;;;;;;;18.70;99.90;;;;;;4952002;28;20695;-68
2023/05/30 08:13:11;;;;;;;;;;;18.80;99.90;;;;;;4951162;28;20385;-67
2023/05/30 08:15:43;;;;;;;;;;;18.80;99.90;;;;;;4968376;28;20017;-67
2023/05/30 08:18:15;;;;;;;;;;;18.90;99.90;;;;;;4946803;28;19926;-67
2023/05/30 08:20:49;;;;;;;;;;;18.90;99.90;;;;;;4946467;28;20599;-67
2023/05/30 08:23:20;;;;;;;;;;;19.00;99.90;;;;;;4966605;28;19930;-68
2023/05/30 08:25:52;;;;;;;;;;;19.10;99.90;;;;;;4961338;28;20019;-66
2023/05/30 08:28:24;;;;;;;;;;;19.30;99.90;;;;;;4949169;28;20599;-66
2023/05/30 08:30:56;;;;;;;;;;;19.50;99.90;;;;;;4963685;28;19934;-67
2023/05/30 08:33:28;;;;;;;;;;;19.50;99.90;;;;;;4945612;28;19938;-67
2023/05/30 08:35:55;;;;;;;;;;;19.60;99.90;;;;;;4945707;28;19938;-66
2023/05/30 08:38:23;;;;;;;;;;;19.70;99.90;;;;;;4948950;28;19926;-66
2023/05/30 08:40:51;;;;;;;;;;;19.80;99.90;;;;;;4945788;28;21254;-67
2023/05/30 08:43:18;;;;;;;;;;;19.80;99.90;;;;;;4964392;28;19926;-68
2023/05/30 08:45:46;;;;;;;;;;;19.90;99.90;;;;;;4946548;28;19988;-68
2023/05/30 08:48:19;;;;;;;;;;;20.00;99.90;;;;;;4960477;28;20013;-67
2023/05/30 08:50:51;;;;;;;;;;;20.10;99.90;;;;;;4934290;28;19933;-66
2023/05/30 08:53:32;;;;;;;;;;;20.20;99.90;;;;;;4953414;28;19926;-71
2023/05/30 08:56:11;;;;;;;;;;;20.30;99.90;;;;;;4963894;28;20509;-67
2023/05/30 08:58:46;;;;;;;;;;;20.30;99.90;;;;;;4962785;28;19926;-68
2023/05/30 09:01:18;;;;;;;;;;;20.40;99.90;;;;;;4964895;28;19949;-69
2023/05/30 09:03:51;;;;;;;;;;;20.50;99.90;;;;;;4963499;28;19933;-68
2023/05/30 09:06:17;;;;;;;;;;;20.60;99.90;;;;;;4964551;28;19930;-68
2023/05/30 09:08:45;;;;;;;;;;;20.60;99.90;;;;;;4956203;28;19926;-69
2023/05/30 09:11:18;;;;;;;;;;;20.70;99.90;;;;;;4960888;28;20300;-68
2023/05/30 09:13:51;;;;;;;;;;;20.80;99.90;;;;;;4945141;28;20017;-66
2023/05/30 09:16:24;;;;;;;;;;;20.90;99.90;;;;;;4930316;28;20402;-67
2023/05/30 09:18:56;;;;;;;;;;;20.90;99.90;;;;;;4959768;28;19938;-66
2023/05/30 09:21:27;;;;;;;;;;;21.00;99.90;;;;;;4960705;28;19927;-68
2023/05/30 09:24:01;;;;;;;;;;;21.10;99.90;;;;;;4953318;28;19926;-66
2023/05/30 09:26:28;;;;;;;;;;;21.10;99.90;;;;;;4965786;28;20024;-67
2023/05/30 09:29:12;;;;;;;;;;;21.20;99.90;;;;;;4965135;28;20417;-67
2023/05/30 09:31:46;;;;;;;;;;;21.30;99.90;;;;;;4964458;28;19932;-68
2023/05/30 09:34:17;;;;;;;;;;;21.40;99.90;;;;;;4963073;28;20012;-68
2023/05/30 09:36:52;;;;;;;;;;;21.40;99.90;;;;;;4946030;28;19926;-69
2023/05/30 09:39:26;;;;;;;;;;;21.50;99.90;;;;;;4962193;28;19927;-69
2023/05/30 09:41:58;;;;;;;;;;;21.60;99.90;;;;;;4962574;28;19949;-67
2023/05/30 09:44:30;;;;;;;;;;;21.60;99.90;;;;;;4960215;28;19931;-68
2023/05/30 09:47:01;;;;;;;;;;;21.80;99.90;;;;;;4948111;28;19930;-69
2023/05/30 09:49:28;;;;;;;;;;;21.90;99.90;;;;;;4964493;28;19931;-68
2023/05/30 09:52:01;;;;;;;;;;;21.90;99.90;;;;;;4948969;28;20118;-68
2023/05/30 09:54:33;;;;;;;;;;;22.10;99.90;;;;;;4957559;23;19930;-67
2023/05/30 09:57:06;;;;;;;;;;;22.20;99.90;;;;;;4941584;28;19931;-67
2023/05/30 09:59:33;;;;;;;;;;;22.30;99.90;;;;;;4938467;29;19927;-66
2023/05/30 10:02:00;;;;;;;;;;;22.50;99.90;;;;;;4945779;29;19977;-66
2023/05/30 10:04:32;;;;;;;;;;;22.60;99.90;;;;;;4935679;28;20540;-66
2023/05/30 10:07:05;;;;;;;;;;;22.60;99.90;;;;;;4935834;29;20403;-66
2023/05/30 10:09:36;;;;;;;;;;;22.70;99.90;;;;;;4939805;29;19934;-66
2023/05/30 10:12:09;;;;;;;;;;;22.80;99.90;;;;;;4944406;29;19937;-66
2023/05/30 10:14:41;;;;;;;;;;;23.00;99.90;;;;;;4940364;29;19959;-66
2023/05/30 10:17:15;;;;;;;;;;;23.10;99.30;;;;;;4941180;29;19958;-66
2023/05/30 10:19:48;;;;;;;;;;;23.20;99.90;;;;;;4940408;29;19926;-66
2023/05/30 10:22:21;;;;;;;;;;;23.20;98.70;;;;;;4937570;29;19927;-66
2023/05/30 10:24:53;;;;;;;;;;;23.00;96.60;;;;;;4937427;28;19933;-66
2023/05/30 10:27:30;;;;;;;;;;;22.90;99.10;;;;;;4936310;28;20015;-67
2023/05/30 10:30:06;;;;;;;;;;;23.00;98.20;;;;;;4936106;29;19934;-66
2023/05/30 10:32:38;;;;;;;;;;;23.10;97.90;;;;;;4939340;28;20422;-66
2023/05/30 10:35:20;;;;;;;;;;;23.20;98.10;;;;;;4935724;29;19926;-66
2023/05/30 10:37:53;;;;;;;;;;;23.40;97.30;;;;;;4939497;29;19935;-66
2023/05/30 10:40:30;;;;;;;;;;;23.40;96.10;;;;;;4945870;29;19931;-66
2023/05/30 10:43:01;;;;;;;;;;;23.20;94.90;;;;;;4927517;29;19938;-66
2023/05/30 10:45:42;;;;;;;;;;;23.30;97.50;;;;;;4942051;28;19938;-66
2023/05/30 10:48:38;;;;;;;;;;;23.50;97.30;;;;;;4943715;29;20306;-66
2023/05/30 10:51:11;;;;;;;;;;;23.60;95.00;;;;;;4941307;29;19927;-66
2023/05/30 10:53:44;;;;;;;;;;;23.70;95.10;;;;;;4946280;28;19927;-66
2023/05/30 10:56:34;;;;;;;;;;;23.90;94.90;;;;;;4963620;28;19930;-66
2023/05/30 10:59:17;;;;;;;;;;;24.00;92.80;;;;;;4953170;28;19926;-66
2023/05/30 11:02:03;;;;;;;;;;;24.10;93.20;;;;;;4963545;28;19930;-66
2023/05/30 11:04:42;;;;;;;;;;;24.20;93.00;;;;;;4960744;28;19932;-66
2023/05/30 11:07:11;;;;;;;;;;;24.40;93.80;;;;;;4962272;28;19962;-66
2023/05/30 11:09:41;;;;;;;;;;;24.50;91.80;;;;;;4943337;28;19979;-66
2023/05/30 11:12:19;;;;;;;;;;;24.50;91.60;;;;;;4964280;28;19926;-66
2023/05/30 11:14:55;;;;;;;;;;;24.60;92.30;;;;;;4955891;28;20417;-66
2023/05/30 11:17:27;;;;;;;;;;;24.50;91.60;;;;;;4937381;28;19948;-66
2023/05/30 11:20:06;;;;;;;;;;;24.50;91.40;;;;;;4952742;28;20027;-66
2023/05/30 11:22:38;;;;;;;;;;;24.70;89.50;;;;;;4959188;28;19938;-66
2023/05/30 11:25:24;;;;;;;;;;;24.90;90.50;;;;;;4944485;28;19931;-66
2023/05/30 11:28:00;;;;;;;;;;;25.20;88.50;;;;;;4963283;28;19972;-66
2023/05/30 11:30:37;;;;;;;;;;;25.40;87.40;;;;;;4960573;28;19926;-66
2023/05/30 11:33:10;;;;;;;;;;;25.40;83.70;;;;;;4962067;28;20020;-66
2023/05/30 11:35:46;;;;;;;;;;;25.50;80.50;;;;;;4959387;28;19962;-66
2023/05/30 11:38:18;;;;;;;;;;;25.50;81.90;;;;;;4956222;28;19957;-66
2023/05/30 11:40:50;;;;;;;;;;;25.70;78.20;;;;;;4945225;28;19926;-66
2023/05/30 11:43:22;;;;;;;;;;;25.70;78.80;;;;;;4968961;28;19933;-66
2023/05/30 11:45:56;;;;;;;;;;;25.80;81.50;;;;;;4954103;28;19937;-67
2023/05/30 11:48:32;;;;;;;;;;;26.00;79.30;;;;;;4957982;28;20130;-66
2023/05/30 11:50:59;;;;;;;;;;;26.10;77.60;;;;;;4955046;28;20046;-66
2023/05/30 11:53:31;;;;;;;;;;;26.30;78.00;;;;;;4957206;28;19938;-66
2023/05/30 11:56:03;;;;;;;;;;;26.40;77.40;;;;;;4930619;29;19977;-66
2023/05/30 11:58:35;;;;;;;;;;;26.50;76.40;;;;;;4962189;28;19930;-66
2023/05/30 12:01:06;;;;;;;;;;;26.30;73.60;;;;;;4965503;28;19981;-66
2023/05/30 12:03:40;;;;;;;;;;;26.10;73.20;;;;;;4962801;28;19941;-66
2023/05/30 12:06:12;;;;;;;;;;;25.60;73.50;;;;;;4942512;28;19933;-66
2023/05/30 12:08:47;;;;;;;;;;;25.30;74.70;;;;;;4928789;28;19933;-66
2023/05/30 12:11:19;;;;;;;;;;;25.30;73.30;;;;;;4954992;28;21281;-66
2023/05/30 12:13:46;;;;;;;;;;;25.10;71.90;;;;;;4944353;28;20398;-66
2023/05/30 12:16:18;;;;;;;;;;;25.10;75.70;;;;;;4955097;28;19930;-67
2023/05/30 12:18:49;;;;;;;;;;;25.20;74.60;;;;;;4948068;28;19941;-67
2023/05/30 12:21:21;;;;;;;;;;;25.60;76.30;;;;;;4950918;28;20295;-66
2023/05/30 12:23:53;;;;;;;;;;;25.80;74.60;;;;;;4954430;28;19927;-66
2023/05/30 12:26:25;;;;;;;;;;;26.10;75.10;;;;;;4963200;28;20317;-66
2023/05/30 12:28:57;;;;;;;;;;;26.30;70.70;;;;;;4940899;28;19927;-66
2023/05/30 12:31:28;;;;;;;;;;;26.40;72.10;;;;;;4957551;28;19926;-66
2023/05/30 12:33:59;;;;;;;;;;;26.40;68.50;;;;;;4958576;28;19930;-66
2023/05/30 12:36:31;;;;;;;;;;;26.50;71.10;;;;;;4951687;28;19931;-67
2023/05/30 12:39:05;;;;;;;;;;;26.60;70.50;;;;;;4954323;28;19933;-66
2023/05/30 12:41:40;;;;;;;;;;;26.50;68.30;;;;;;4958924;28;19937;-66
2023/05/30 12:44:16;;;;;;;;;;;26.40;67.20;;;;;;4928175;28;19927;-70
2023/05/30 12:46:48;;;;;;;;;;;26.50;67.40;;;;;;4936545;28;19930;-66
2023/05/30 12:49:19;;;;;;;;;;;26.30;68.90;;;;;;4962092;28;20276;-66
2023/05/30 12:51:51;;;;;;;;;;;26.20;66.70;;;;;;4939936;28;20298;-67
2023/05/30 12:54:23;;;;;;;;;;;26.20;67.20;;;;;;4960104;28;19942;-66
2023/05/30 12:56:55;;;;;;;;;;;26.50;69.10;;;;;;4954853;28;19977;-66
2023/05/30 12:59:27;;;;;;;;;;;26.70;66.80;;;;;;4936293;28;19926;-66
2023/05/30 13:01:59;;;;;;;;;;;26.80;66.30;;;;;;4950606;28;19978;-67
2023/05/30 13:04:31;;;;;;;;;;;27.10;65.90;;;;;;4956451;28;20040;-66
2023/05/30 13:07:03;;;;;;;;;;;27.10;65.10;;;;;;4959924;28;19927;-66
2023/05/30 13:09:35;;;;;;;;;;;27.00;65.10;;;;;;4962452;28;19936;-66
2023/05/30 13:12:10;;;;;;;;;;;26.90;63.00;;;;;;4930913;29;19934;-67
2023/05/30 13:14:41;;;;;;;;;;;26.90;61.90;;;;;;4938660;28;19930;-66
2023/05/30 13:17:15;;;;;;;;;;;26.80;59.50;;;;;;4956275;28;20404;-66
2023/05/30 13:19:49;;;;;;;;;;;26.90;59.90;;;;;;4958205;28;20442;-66
2023/05/30 13:22:23;;;;;;;;;;;26.50;60.70;;;;;;4954984;28;19930;-66
2023/05/30 13:24:57;;;;;;;;;;;26.40;62.80;;;;;;4951402;28;19931;-66
2023/05/30 13:27:33;;;;;;;;;;;26.20;64.70;;;;;;4935937;28;20375;-67
2023/05/30 13:30:06;;;;;;;;;;;26.10;64.00;;;;;;4960433;28;19930;-67
2023/05/30 13:32:37;;;;;;;;;;;26.10;64.00;;;;;;4960685;28;20406;-66
2023/05/30 13:35:04;;;;;;;;;;;26.30;63.30;;;;;;4946720;28;19934;-67
2023/05/30 13:37:36;;;;;;;;;;;26.60;64.80;;;;;;4962728;28;19937;-67
2023/05/30 13:40:09;;;;;;;;;;;26.90;62.20;;;;;;4959654;28;19931;-66
2023/05/30 13:42:41;;;;;;;;;;;27.10;62.20;;;;;;4962546;28;20284;-67
2023/05/30 13:45:13;;;;;;;;;;;27.30;61.60;;;;;;4955321;28;20396;-67
2023/05/30 13:47:45;;;;;;;;;;;27.50;61.20;;;;;;4967087;28;19930;-67
2023/05/30 13:50:22;;;;;;;;;;;27.40;58.90;;;;;;4954468;28;20478;-67
2023/05/30 13:52:53;;;;;;;;;;;27.20;57.80;;;;;;4958100;28;19933;-66
2023/05/30 13:55:25;;;;;;;;;;;27.20;59.50;;;;;;4958295;28;19989;-66
2023/05/30 13:57:57;;;;;;;;;;;27.20;60.20;;;;;;4962124;28;19926;-66
2023/05/30 14:00:29;;;;;;;;;;;27.40;60.70;;;;;;4948572;28;19926;-66
2023/05/30 14:02:56;;;;;;;;;;;27.60;60.60;;;;;;4957766;28;20399;-66
2023/05/30 14:05:27;;;;;;;;;;;27.50;62.40;;;;;;4930113;28;19927;-66
2023/05/30 14:07:59;;;;;;;;;;;27.30;61.20;;;;;;4959242;28;19934;-66
2023/05/30 14:10:31;;;;;;;;;;;26.90;62.50;;;;;;4959005;28;19934;-66
2023/05/30 14:13:04;;;;;;;;;;;26.70;63.30;;;;;;4951263;28;19941;-67
2023/05/30 14:15:35;;;;;;;;;;;26.50;62.70;;;;;;4957191;28;19931;-66
2023/05/30 14:18:07;;;;;;;;;;;26.30;63.40;;;;;;4954810;28;20358;-66
2023/05/30 14:20:34;;;;;;;;;;;26.30;63.20;;;;;;4952690;28;20306;-67
2023/05/30 14:23:07;;;;;;;;;;;26.20;63.40;;;;;;4960096;28;19974;-66
2023/05/30 14:25:38;;;;;;;;;;;26.50;63.70;;;;;;4958772;28;20286;-66
2023/05/30 14:28:10;;;;;;;;;;;26.70;63.50;;;;;;4958999;28;19934;-66
2023/05/30 14:30:42;;;;;;;;;;;27.00;64.50;;;;;;4940813;28;19926;-66
2023/05/30 14:33:14;;;;;;;;;;;27.00;63.40;;;;;;4957880;28;20025;-66
2023/05/30 14:35:45;;;;;;;;;;;27.00;63.80;;;;;;4955335;28;20186;-67
2023/05/30 14:38:12;;;;;;;;;;;26.60;65.20;;;;;;4958115;28;19938;-66
2023/05/30 14:40:44;;;;;;;;;;;26.30;64.60;;;;;;4931795;28;19935;-66
2023/05/30 14:43:16;;;;;;;;;;;26.10;65.50;;;;;;4947620;28;19930;-66
2023/05/30 14:45:48;;;;;;;;;;;25.80;67.10;;;;;;4955760;28;19956;-67